createdAt,value
2019-04-23T00:00:19.678Z,57.8
2019-04-23T00:05:35.109Z,57.8
2019-04-23T00:10:24.705Z,57.8
2019-04-23T00:15:30.218Z,57.8
2019-04-23T00:20:18.243Z,57.8
2019-04-23T00:30:26.243Z,58.4
2019-04-23T00:35:17.872Z,57.8
2019-04-23T00:40:25.419Z,57.8
2019-04-23T00:45:24.291Z,57.8
2019-04-23T00:50:28.110Z,57.3
2019-04-23T00:55:20.948Z,57.3
2019-04-23T01:00:33.424Z,57.8
2019-04-23T01:05:23.494Z,57.3
2019-04-23T01:15:25.292Z,57.3
2019-04-23T01:20:20.401Z,57.3
2019-04-23T01:25:09.509Z,57.3
2019-04-23T01:30:40.326Z,57.3
2019-04-23T01:35:39.432Z,56.8
2019-04-23T01:40:31.743Z,57.3
2019-04-23T01:50:27.374Z,56.8
2019-04-23T01:55:32.791Z,56.8
2019-04-23T02:00:28.530Z,57.3
2019-04-23T02:05:27.120Z,56.8
2019-04-23T02:15:29.566Z,56.2
2019-04-23T02:20:27.414Z,56.2
2019-04-23T02:25:39.243Z,56.2
2019-04-23T02:35:49.510Z,57.3
2019-04-23T02:40:46.328Z,56.2
2019-04-23T02:45:26.458Z,56.2
2019-04-23T02:50:37.563Z,57.3
2019-04-23T02:55:48.353Z,56.2
2019-04-23T03:05:35.666Z,56.2
2019-04-23T03:10:40.111Z,56.8
2019-04-23T03:36:08.924Z,55.7
2019-04-23T03:40:25.595Z,55.7
2019-04-23T03:50:35.158Z,55.1
2019-04-23T03:55:36.877Z,56.2
2019-04-23T04:00:36.829Z,55.7
2019-04-23T04:10:43.983Z,55.1
2019-04-23T04:20:39.070Z,55.1
2019-04-23T04:30:33.481Z,55.1
2019-04-23T04:35:46.431Z,55.7
2019-04-23T04:40:36.265Z,55.1
2019-04-23T04:50:31.015Z,55.1
2019-04-23T04:55:35.504Z,55.7
2019-04-23T05:00:42.163Z,55.1
2019-04-23T05:05:58.913Z,55.1
2019-04-23T05:10:51.101Z,55.7
2019-04-23T05:15:27.727Z,55.1
2019-04-23T05:20:36.443Z,55.1
2019-04-23T05:25:24.121Z,55.1
2019-04-23T05:30:31.518Z,55.1
2019-04-23T05:35:46.399Z,55.1
2019-04-23T05:40:36.859Z,55.7
2019-04-23T05:45:29.638Z,55.1
2019-04-23T05:50:50.430Z,55.1
2019-04-23T05:55:26.262Z,55.1
2019-04-23T06:00:32.005Z,55.7
2019-04-23T06:05:32.566Z,55.1
2019-04-23T06:10:32.243Z,55.7
2019-04-23T06:20:34.764Z,55.7
2019-04-23T06:30:34.103Z,56.2
2019-04-23T06:35:28.410Z,55.7
2019-04-23T06:40:26.432Z,55.1
2019-04-23T06:45:27.466Z,55.7
2019-04-23T06:50:26.943Z,56.2
2019-04-23T06:55:28.229Z,55.7
2019-04-23T07:00:27.067Z,55.7
2019-04-23T07:05:29.523Z,55.7
2019-04-23T07:10:31.457Z,55.7
2019-04-23T07:15:37.661Z,56.2
2019-04-23T07:20:27.059Z,56.2
2019-04-23T07:25:21.913Z,56.8
2019-04-23T07:30:29.130Z,56.2
2019-04-23T07:35:21.014Z,56.2
2019-04-23T07:40:40.266Z,56.8
2019-04-23T07:45:29.337Z,57.3
2019-04-23T07:55:34.151Z,57.3
2019-04-23T08:00:34.276Z,56.8
2019-04-23T08:05:26.283Z,57.3
2019-04-23T08:10:27.648Z,57.3
2019-04-23T08:15:27.890Z,57.8
2019-04-23T08:30:23.784Z,57.8
2019-04-23T08:35:26.527Z,57.8
2019-04-23T08:40:27.281Z,58.4
2019-04-23T08:45:27.724Z,57.8
2019-04-23T08:50:31.965Z,58.4
2019-04-23T08:55:38.283Z,58.4
2019-04-23T09:00:32.500Z,58.4
2019-04-23T09:05:37.984Z,57.8
2019-04-23T09:10:33.739Z,58.4
2019-04-23T09:15:38.685Z,59.5
2019-04-23T09:20:26.040Z,58.4
2019-04-23T09:25:34.409Z,59.5
2019-04-23T09:30:26.326Z,59.5
2019-04-23T09:40:41.172Z,55.7
2019-04-23T09:45:33.537Z,55.1
2019-04-23T09:50:28.011Z,54.6
2019-04-23T09:55:33.256Z,55.1
2019-04-23T10:00:40.509Z,55.1
2019-04-23T10:05:13.683Z,55.1
2019-04-23T10:10:03.551Z,54.6
2019-04-23T10:15:09.551Z,55.1
2019-04-23T10:20:02.662Z,55.7
2019-04-23T10:25:03.534Z,55.1
2019-04-23T10:30:01.857Z,55.1
2019-04-23T10:35:14.287Z,55.1
2019-04-23T10:40:05.322Z,55.1
2019-04-23T10:45:14.367Z,55.7
2019-04-23T10:50:34.209Z,55.7
2019-04-23T10:55:34.410Z,55.7
2019-04-23T11:00:29.577Z,55.7
2019-04-23T11:05:42.756Z,55.7
2019-04-23T11:10:25.382Z,56.2
2019-04-23T11:40:25.057Z,53
2019-04-23T11:55:38.717Z,51.4
2019-04-23T12:05:31.353Z,51.9
2019-04-23T12:10:37.574Z,50.8
2019-04-23T12:15:31.663Z,51.9
2019-04-23T12:20:31.733Z,51.9
2019-04-23T12:25:30.693Z,51.9
2019-04-23T12:30:39.265Z,51.9
2019-04-23T12:35:27.229Z,51.9
2019-04-23T12:50:44.658Z,47.6
2019-04-23T13:15:28.684Z,47.6
2019-04-23T13:20:36.476Z,47.6
2019-04-23T13:25:34.431Z,47.6
2019-04-23T13:30:45.903Z,47.1
2019-04-23T13:35:45.218Z,47.1
2019-04-23T13:40:37.268Z,47.6
2019-04-23T13:55:26.487Z,47.1
2019-04-23T14:05:32.820Z,46.5
2019-04-23T14:10:33.602Z,46.5
2019-04-23T14:15:40.129Z,46
2019-04-23T14:20:31.428Z,46.5
2019-04-23T14:25:26.293Z,46
2019-04-23T14:30:36.008Z,39.5
2019-04-23T14:35:31.388Z,38.5
2019-04-23T14:40:32.550Z,37.9
2019-04-23T15:00:32.582Z,36.9
2019-04-23T15:05:31.851Z,36.9
2019-04-23T15:10:31.230Z,36.9
2019-04-23T15:20:27.541Z,36.9
2019-04-23T15:25:31.509Z,36.9
2019-04-23T15:30:19.965Z,36.9
2019-04-23T15:35:35.942Z,36.9
2019-04-23T15:40:24.574Z,36.9
2019-04-23T15:45:27.506Z,35.8
2019-04-23T15:55:26.945Z,35.8
2019-04-23T16:00:28.823Z,36.3
2019-04-23T16:05:03.735Z,36.3
2019-04-23T16:10:27.571Z,35.8
2019-04-23T16:15:24.911Z,36.3
2019-04-23T16:25:20.165Z,35.8
2019-04-23T16:40:32.704Z,36.3
2019-04-23T16:50:34.479Z,35.8
2019-04-23T16:55:28.452Z,35.8
2019-04-23T17:00:29.294Z,36.3
2019-04-23T17:05:30.886Z,36.3
2019-04-23T17:10:35.673Z,35.8
2019-04-23T17:15:33.022Z,36.3
2019-04-23T17:20:37.054Z,36.3
2019-04-23T17:25:47.877Z,35.8
2019-04-23T17:30:32.177Z,35.8
2019-04-23T17:35:29.379Z,35.8
2019-04-23T17:40:22.885Z,36.3
2019-04-23T17:50:39.610Z,35.8
2019-04-23T17:55:29.384Z,35.8
2019-04-23T18:00:33.456Z,36.3
2019-04-23T18:05:23.365Z,35.8
2019-04-23T18:10:45.338Z,35.8
2019-04-23T18:15:23.882Z,35.8
2019-04-23T18:20:28.057Z,35.8
2019-04-23T18:25:30.546Z,35.8
2019-04-23T18:30:25.566Z,35.8
2019-04-23T18:35:29.217Z,35.8
2019-04-23T18:40:28.297Z,35.2
2019-04-23T18:45:38.499Z,35.8
2019-04-23T18:50:39.047Z,35.8
2019-04-23T18:55:43.214Z,35.2
2019-04-23T19:00:52.881Z,35.8
2019-04-23T19:05:30.685Z,34.7
2019-04-23T19:10:50.488Z,35.2
2019-04-23T19:25:25.746Z,34.7
2019-04-23T19:30:40.997Z,35.2
2019-04-23T19:35:49.974Z,34.7
2019-04-23T19:40:37.339Z,34.7
2019-04-23T19:45:38.390Z,34.7
2019-04-23T19:50:40.122Z,34.7
2019-04-23T19:55:29.480Z,34.7
2019-04-23T20:00:42.042Z,34.7
2019-04-23T20:05:30.400Z,34.2
2019-04-23T20:10:32.770Z,34.7
2019-04-23T20:15:39.711Z,34.7
2019-04-23T20:20:33.357Z,34.7
2019-04-23T20:30:40.174Z,34.7
2019-04-23T20:35:46.304Z,34.7
2019-04-23T20:40:39.486Z,34.7
2019-04-23T20:45:38.223Z,34.2
2019-04-23T20:50:33.605Z,35.2
2019-04-23T20:55:38.312Z,34.7
2019-04-23T21:00:25.509Z,34.7
2019-04-23T21:05:22.551Z,34.7
2019-04-23T21:10:36.656Z,34.7
2019-04-23T21:15:34.785Z,34.2
2019-04-23T21:20:36.302Z,34.2
2019-04-23T21:25:36.850Z,34.2
2019-04-23T21:30:37.825Z,34.2
2019-04-23T21:35:41.253Z,33.6
2019-04-23T21:40:51.028Z,33.6
2019-04-23T21:45:30.031Z,33.6
2019-04-23T21:50:43.090Z,34.7
2019-04-23T21:55:38.466Z,33.6
2019-04-23T22:00:35.926Z,34.2
2019-04-23T22:05:30.565Z,33.6
2019-04-23T22:10:31.622Z,33.6
2019-04-23T22:15:44.453Z,33.6
2019-04-23T22:20:31.041Z,34.2
2019-04-23T22:25:41.285Z,33.6
2019-04-23T22:30:35.981Z,34.2
2019-04-23T22:35:28.649Z,33.6
2019-04-23T22:40:34.179Z,34.2
2019-04-23T22:45:42.503Z,33.6
2019-04-23T22:55:30.282Z,33.6
2019-04-23T23:00:22.413Z,33.6
2019-04-23T23:05:34.160Z,33.1
2019-04-23T23:10:26.468Z,33.6
2019-04-23T23:15:28.201Z,33.6
2019-04-23T23:20:28.623Z,33.6
2019-04-23T23:25:28.439Z,33.6
2019-04-23T23:30:35.740Z,33.6
2019-04-23T23:35:32.889Z,32.6
2019-04-23T23:40:32.808Z,32.6
2019-04-23T23:45:33.371Z,32.6
2019-04-23T23:50:33.806Z,33.1
2019-04-23T23:55:35.331Z,32.6
